createdAt,value
2018-04-20T00:01:19.512Z,10.44
2018-04-20T00:03:47.791Z,10.66
2018-04-20T00:06:16.115Z,10.76
2018-04-20T00:08:44.409Z,10.65
2018-04-20T00:11:12.763Z,10.41
2018-04-20T00:13:42.343Z,10.15
2018-04-20T00:16:11.259Z,10.00
2018-04-20T00:18:39.568Z,10.22
2018-04-20T00:21:07.879Z,10.50
2018-04-20T00:23:36.454Z,10.64
2018-04-20T00:26:05.152Z,10.69
2018-04-20T00:28:33.455Z,10.66
2018-04-20T00:31:01.754Z,10.54
2018-04-20T00:33:30.859Z,10.36
2018-04-20T00:35:59.170Z,10.16
2018-04-20T00:38:27.452Z,10.10
2018-04-20T00:40:55.799Z,10.28
2018-04-20T00:43:24.099Z,10.45
2018-04-20T00:45:52.407Z,10.49
2018-04-20T00:48:20.766Z,10.48
2018-04-20T00:50:49.103Z,10.35
2018-04-20T00:53:17.580Z,10.09
2018-04-20T00:55:46.733Z,10.14
2018-04-20T00:58:15.118Z,10.25
2018-04-20T01:00:43.438Z,10.23
2018-04-20T01:03:12.379Z,10.19
2018-04-20T01:05:40.668Z,10.11
2018-04-20T01:08:10.102Z,10.10
2018-04-20T01:10:38.491Z,9.82
2018-04-20T01:13:06.863Z,9.76
2018-04-20T01:15:35.175Z,9.78
2018-04-20T01:18:03.500Z,9.69
2018-04-20T01:20:32.564Z,9.44
2018-04-20T01:23:01.006Z,9.34
2018-04-20T01:25:29.295Z,9.51
2018-04-20T01:27:57.575Z,9.56
2018-04-20T01:30:25.887Z,9.45
2018-04-20T01:32:54.166Z,9.37
2018-04-20T01:35:22.574Z,9.27
2018-04-20T01:37:51.475Z,9.02
2018-04-20T01:40:20.150Z,9.03
2018-04-20T01:42:48.498Z,9.24
2018-04-20T01:45:16.775Z,9.14
2018-04-20T01:47:45.217Z,8.91
2018-04-20T01:50:13.499Z,8.81
2018-04-20T01:52:41.808Z,8.93
2018-04-20T01:55:10.143Z,9.03
2018-04-20T01:57:38.447Z,9.08
2018-04-20T02:00:06.722Z,9.03
2018-04-20T02:02:35.101Z,9.02
2018-04-20T02:05:03.389Z,9.02
2018-04-20T02:07:31.673Z,8.97
2018-04-20T02:10:00.004Z,8.82
2018-04-20T02:12:28.297Z,8.66
2018-04-20T02:14:57.075Z,8.44
2018-04-20T02:17:25.450Z,8.34
2018-04-20T02:19:53.688Z,8.64
2018-04-20T02:22:23.199Z,8.81
2018-04-20T02:24:51.593Z,8.86
2018-04-20T02:27:19.900Z,8.78
2018-04-20T02:29:48.187Z,8.75
2018-04-20T02:32:17.120Z,8.68
2018-04-20T02:34:45.403Z,8.66
2018-04-20T02:37:13.739Z,8.66
2018-04-20T02:39:42.743Z,8.53
2018-04-20T02:42:11.027Z,8.49
2018-04-20T02:44:39.825Z,8.26
2018-04-20T02:47:08.115Z,8.12
2018-04-20T02:49:36.467Z,8.13
2018-04-20T02:52:04.992Z,8.31
2018-04-20T02:54:34.044Z,8.33
2018-04-20T02:57:02.332Z,8.21
2018-04-20T02:59:31.132Z,7.98
2018-04-20T03:01:59.441Z,8.00
2018-04-20T03:04:27.864Z,8.17
2018-04-20T03:06:56.265Z,8.12
2018-04-20T03:09:24.546Z,8.13
2018-04-20T03:11:52.859Z,8.13
2018-04-20T03:14:21.147Z,8.01
2018-04-20T03:16:49.431Z,8.11
2018-04-20T03:19:17.744Z,8.07
2018-04-20T03:21:46.779Z,7.94
2018-04-20T03:24:15.074Z,7.89
2018-04-20T03:26:43.989Z,7.73
2018-04-20T03:29:12.299Z,7.71
2018-04-20T03:31:40.596Z,7.66
2018-04-20T03:34:08.934Z,7.56
2018-04-20T03:36:37.920Z,7.45
2018-04-20T03:39:06.206Z,7.43
2018-04-20T03:41:34.527Z,7.46
2018-04-20T03:44:02.811Z,7.42
2018-04-20T03:46:31.095Z,7.37
2018-04-20T03:48:59.415Z,7.33
2018-04-20T03:51:27.699Z,7.29
2018-04-20T03:53:56.727Z,7.14
2018-04-20T03:56:25.053Z,7.18
2018-04-20T03:58:53.734Z,7.28
2018-04-20T04:01:22.326Z,7.12
2018-04-20T04:03:50.615Z,7.02
2018-04-20T04:06:18.939Z,7.12
2018-04-20T04:08:47.235Z,7.20
2018-04-20T04:11:15.523Z,7.23
2018-04-20T04:13:43.839Z,7.18
2018-04-20T04:16:12.130Z,6.99
2018-04-20T04:18:58.083Z,6.90
2018-04-20T04:21:43.855Z,6.95
2018-04-20T04:24:29.867Z,6.94
2018-04-20T04:40:39.154Z,7.36
2018-04-20T04:43:08.287Z,7.32
2018-04-20T04:45:36.660Z,7.39
2018-04-20T04:48:05.166Z,7.57
2018-04-20T04:50:33.409Z,7.44
2018-04-20T04:53:01.751Z,7.38
2018-04-20T04:55:31.339Z,7.52
2018-04-20T04:57:59.639Z,7.60
2018-04-20T05:00:27.966Z,7.62
2018-04-20T05:02:56.957Z,7.80
2018-04-20T05:05:25.867Z,7.93
2018-04-20T05:07:54.196Z,8.04
2018-04-20T05:10:22.607Z,8.27
2018-04-20T05:12:51.572Z,9.01
2018-04-20T05:15:19.910Z,9.82
2018-04-20T05:17:48.472Z,10.21
2018-04-20T05:20:17.468Z,10.94
2018-04-20T05:22:45.811Z,11.66
2018-04-20T05:25:14.142Z,12.18
2018-04-20T05:27:42.432Z,12.90
2018-04-20T05:30:10.765Z,12.97
2018-04-20T05:32:39.300Z,13.35
2018-04-20T05:35:07.591Z,14.08
2018-04-20T05:37:35.923Z,14.43
2018-04-20T05:40:04.487Z,14.75
2018-04-20T05:42:32.791Z,15.28
2018-04-20T05:45:01.123Z,15.44
2018-04-20T05:47:30.088Z,15.59
2018-04-20T05:49:59.083Z,16.00
2018-04-20T05:52:27.443Z,16.18
2018-04-20T05:54:55.578Z,16.34
2018-04-20T05:57:23.872Z,16.46
2018-04-20T05:59:52.308Z,17.03
2018-04-20T06:02:20.715Z,17.64
2018-04-20T06:04:49.098Z,18.16
2018-04-20T06:07:17.383Z,17.92
2018-04-20T06:09:45.739Z,18.21
2018-04-20T06:12:14.036Z,18.73
2018-04-20T06:14:42.332Z,18.72
2018-04-20T06:17:10.672Z,18.35
2018-04-20T06:19:39.720Z,18.45
2018-04-20T06:22:08.013Z,18.80
2018-04-20T06:24:36.352Z,19.25
2018-04-20T06:27:05.415Z,19.52
2018-04-20T06:29:33.710Z,20.22
2018-04-20T06:32:02.183Z,20.22
2018-04-20T06:34:30.517Z,19.58
2018-04-20T06:36:59.618Z,19.65
2018-04-20T06:39:27.907Z,20.63
2018-04-20T06:41:56.195Z,21.19
2018-04-20T06:44:24.836Z,21.29
2018-04-20T06:46:53.199Z,21.35
2018-04-20T06:49:21.548Z,21.43
2018-04-20T06:51:49.837Z,21.31
2018-04-20T06:54:18.231Z,21.07
2018-04-20T06:56:46.580Z,21.28
2018-04-20T06:59:14.922Z,21.68
2018-04-20T07:01:43.214Z,21.26
2018-04-20T07:04:11.507Z,20.89
2018-04-20T07:06:39.880Z,20.34
2018-04-20T07:09:08.319Z,21.37
2018-04-20T07:11:36.619Z,21.61
2018-04-20T07:14:04.947Z,22.17
2018-04-20T07:16:33.240Z,22.63
2018-04-20T07:19:01.599Z,23.37
2018-04-20T07:21:30.235Z,23.40
2018-04-20T07:23:58.527Z,23.78
2018-04-20T07:26:27.574Z,23.83
2018-04-20T07:28:55.907Z,24.83
2018-04-20T07:31:24.342Z,24.36
2018-04-20T07:33:53.426Z,25.94
2018-04-20T07:36:21.739Z,27.98
2018-04-20T07:38:50.283Z,28.24
2018-04-20T07:41:18.577Z,28.43
2018-04-20T07:43:46.980Z,27.94
2018-04-20T07:46:15.292Z,28.64
2018-04-20T07:48:44.143Z,27.92
2018-04-20T07:51:13.483Z,27.64
2018-04-20T07:53:41.581Z,27.47
2018-04-20T07:56:09.899Z,28.61
2018-04-20T07:58:38.194Z,28.86
2018-04-20T08:01:06.646Z,27.53
2018-04-20T08:03:35.628Z,28.09
2018-04-20T08:06:04.077Z,28.35
2018-04-20T08:08:32.371Z,29.61
2018-04-20T08:11:00.943Z,31.13
2018-04-20T08:13:29.978Z,31.07
2018-04-20T08:15:58.287Z,32.59
2018-04-20T08:18:28.024Z,33.11
2018-04-20T08:20:56.468Z,32.50
2018-04-20T08:23:25.671Z,32.75
2018-04-20T08:25:54.519Z,33.52
2018-04-20T08:28:22.811Z,33.86
2018-04-20T08:30:51.127Z,34.10
2018-04-20T08:33:20.127Z,33.86
2018-04-20T08:35:48.501Z,32.15
2018-04-20T08:38:17.307Z,33.75
2018-04-20T08:40:45.371Z,33.62
2018-04-20T08:43:13.664Z,33.02
2018-04-20T08:45:42.787Z,33.74
2018-04-20T08:48:11.108Z,33.38
2018-04-20T08:50:40.227Z,33.23
2018-04-20T08:53:08.579Z,34.12
2018-04-20T08:55:37.138Z,35.28
2018-04-20T08:58:05.519Z,34.84
2018-04-20T09:00:33.868Z,35.44
2018-04-20T09:03:02.694Z,36.34
2018-04-20T09:05:31.441Z,34.87
2018-04-20T09:07:59.931Z,34.93
2018-04-20T09:10:28.239Z,34.10
2018-04-20T09:12:56.579Z,34.55
2018-04-20T09:15:25.666Z,34.78
2018-04-20T09:17:54.049Z,35.59
2018-04-20T09:20:22.596Z,36.15
2018-04-20T09:22:50.939Z,37.27
2018-04-20T09:25:19.243Z,37.56
2018-04-20T09:27:47.654Z,39.14
2018-04-20T09:30:16.109Z,39.83
2018-04-20T09:32:46.137Z,40.33
2018-04-20T09:35:14.483Z,41.08
2018-04-20T09:37:43.351Z,39.13
2018-04-20T09:40:11.763Z,38.68
2018-04-20T09:42:39.815Z,38.41
2018-04-20T09:45:08.343Z,39.31
2018-04-20T09:47:36.641Z,38.46
2018-04-20T09:50:04.846Z,39.42
2018-04-20T09:52:33.891Z,41.21
2018-04-20T09:55:02.179Z,42.27
2018-04-20T09:57:31.616Z,40.97
2018-04-20T10:00:01.029Z,40.83
2018-04-20T10:02:29.319Z,39.32
2018-04-20T10:05:04.429Z,41.08
2018-04-20T10:07:32.767Z,43.10
2018-04-20T10:10:01.076Z,41.66
2018-04-20T10:12:30.183Z,41.93
2018-04-20T10:14:59.140Z,38.24
2018-04-20T10:17:27.419Z,40.01
2018-04-20T10:19:55.706Z,40.04
2018-04-20T10:22:24.028Z,40.69
2018-04-20T10:24:52.323Z,39.17
2018-04-20T10:27:20.607Z,39.80
2018-04-20T10:29:49.681Z,40.73
2018-04-20T10:32:17.967Z,42.64
2018-04-20T10:34:46.255Z,43.98
2018-04-20T10:37:14.599Z,44.54
2018-04-20T10:39:42.882Z,45.93
2018-04-20T10:42:11.202Z,45.86
2018-04-20T10:44:39.483Z,44.59
2018-04-20T10:47:07.828Z,45.69
2018-04-20T10:49:36.112Z,45.24
2018-04-20T10:52:04.167Z,47.50
2018-04-20T10:54:32.494Z,45.97
2018-04-20T10:57:00.819Z,45.49
2018-04-20T10:59:29.863Z,46.70
2018-04-20T11:01:58.184Z,45.17
2018-04-20T11:04:26.275Z,43.53
2018-04-20T11:06:54.599Z,41.89
2018-04-20T11:09:23.045Z,38.25
2018-04-20T11:11:51.484Z,36.86
2018-04-20T11:14:20.616Z,37.74
2018-04-20T11:16:48.849Z,39.02
2018-04-20T11:19:17.703Z,43.44
2018-04-20T11:21:46.051Z,44.76
2018-04-20T11:24:14.368Z,42.84
2018-04-20T11:26:42.908Z,43.53
2018-04-20T11:29:11.196Z,44.12
2018-04-20T11:31:39.532Z,42.77
2018-04-20T11:34:08.588Z,42.76
2018-04-20T11:36:36.882Z,40.42
2018-04-20T11:39:06.896Z,42.58
2018-04-20T11:41:35.215Z,43.62
2018-04-20T11:44:03.519Z,43.36
2018-04-20T11:46:31.860Z,42.80
2018-04-20T11:49:01.004Z,44.79
2018-04-20T11:51:29.334Z,45.31
2018-04-20T11:53:57.676Z,44.99
2018-04-20T11:56:25.699Z,43.96
2018-04-20T11:58:54.124Z,41.55
2018-04-20T12:01:23.062Z,43.09
2018-04-20T12:03:51.384Z,44.90
2018-04-20T12:06:19.695Z,44.26
2018-04-20T12:08:47.995Z,43.73
2018-04-20T12:11:16.283Z,43.63
2018-04-20T12:13:45.467Z,41.11
2018-04-20T12:16:13.805Z,42.99
2018-04-20T12:18:42.809Z,45.33
2018-04-20T12:21:11.155Z,44.01
2018-04-20T12:23:39.459Z,45.03
2018-04-20T12:26:08.334Z,45.89
2018-04-20T12:28:37.375Z,44.25
2018-04-20T12:31:05.709Z,40.34
2018-04-20T12:33:34.402Z,39.57
2018-04-20T12:36:03.900Z,36.88
2018-04-20T12:38:33.489Z,38.30
2018-04-20T12:41:03.841Z,35.11
2018-04-20T12:43:32.185Z,32.85
2018-04-20T12:46:00.520Z,31.58
2018-04-20T12:48:28.806Z,30.25
2018-04-20T12:50:57.855Z,29.53
2018-04-20T12:53:26.253Z,29.78
2018-04-20T12:55:54.531Z,30.12
2018-04-20T12:58:22.588Z,31.32
2018-04-20T13:00:50.919Z,32.21
2018-04-20T13:03:19.202Z,35.19
2018-04-20T13:05:47.618Z,38.05
2018-04-20T13:08:16.637Z,37.63
2018-04-20T13:10:45.099Z,37.77
2018-04-20T13:13:13.431Z,36.78
2018-04-20T13:15:42.351Z,40.70
2018-04-20T13:18:10.643Z,44.21
2018-04-20T13:20:38.928Z,43.75
2018-04-20T13:23:07.259Z,43.33
2018-04-20T13:25:37.119Z,41.97
2018-04-20T13:28:05.406Z,37.75
2018-04-20T13:30:33.595Z,34.67
2018-04-20T13:33:02.291Z,35.33
2018-04-20T13:35:31.343Z,35.07
2018-04-20T13:37:59.683Z,37.56
2018-04-20T13:40:27.962Z,35.79
2018-04-20T13:42:56.251Z,35.63
2018-04-20T13:45:24.595Z,38.71
2018-04-20T13:47:53.045Z,39.46
2018-04-20T13:50:21.587Z,40.85
2018-04-20T13:52:49.919Z,43.26
2018-04-20T13:55:19.439Z,40.78
2018-04-20T13:57:48.439Z,39.93
2018-04-20T14:00:16.718Z,39.91
2018-04-20T14:02:45.071Z,39.59
2018-04-20T14:05:13.679Z,39.69
2018-04-20T14:07:42.020Z,38.44
2018-04-20T14:10:10.308Z,37.93
2018-04-20T14:12:38.606Z,34.99
2018-04-20T14:15:07.423Z,36.79
2018-04-20T14:17:35.702Z,36.41
2018-04-20T14:20:03.976Z,37.01
2018-04-20T14:22:32.303Z,35.11
2018-04-20T14:25:00.635Z,32.80
2018-04-20T14:27:29.403Z,33.16
2018-04-20T14:29:57.775Z,33.72
2018-04-20T14:32:26.220Z,35.40
2018-04-20T14:34:54.708Z,36.30
2018-04-20T14:37:23.710Z,36.11
2018-04-20T14:39:52.003Z,35.44
2018-04-20T14:42:20.345Z,36.61
2018-04-20T14:44:48.627Z,34.61
2018-04-20T14:47:16.920Z,33.57
2018-04-20T14:49:45.092Z,33.34
2018-04-20T14:52:13.386Z,33.55
2018-04-20T14:54:41.695Z,35.34
2018-04-20T14:57:10.043Z,34.52
2018-04-20T14:59:38.332Z,35.76
2018-04-20T15:02:07.211Z,35.23
2018-04-20T15:04:36.263Z,32.92
2018-04-20T15:07:04.552Z,34.09
2018-04-20T15:09:33.624Z,33.90
2018-04-20T15:12:01.924Z,34.66
2018-04-20T15:14:30.223Z,34.11
2018-04-20T15:16:58.505Z,34.95
2018-04-20T15:19:27.498Z,34.50
2018-04-20T15:21:56.183Z,34.52
2018-04-20T15:24:25.570Z,34.89
2018-04-20T15:26:54.667Z,34.96
2018-04-20T15:29:23.195Z,33.39
2018-04-20T15:31:51.590Z,33.97
2018-04-20T15:34:19.991Z,33.38
2018-04-20T15:36:48.591Z,32.56
2018-04-20T15:39:16.876Z,33.30
2018-04-20T15:41:45.159Z,32.62
2018-04-20T15:44:13.481Z,32.14
2018-04-20T15:46:42.316Z,32.32
2018-04-20T15:49:10.596Z,32.87
2018-04-20T15:51:39.028Z,32.41
2018-04-20T15:54:07.327Z,32.15
2018-04-20T15:56:35.864Z,31.56
2018-04-20T15:59:04.963Z,30.36
2018-04-20T16:01:34.013Z,30.09
2018-04-20T16:04:02.298Z,30.39
2018-04-20T16:06:30.643Z,30.39
2018-04-20T16:08:58.926Z,29.70
2018-04-20T16:11:27.207Z,30.20
2018-04-20T16:13:55.527Z,29.99
2018-04-20T16:16:23.812Z,29.90
2018-04-20T16:18:52.134Z,29.65
2018-04-20T16:21:20.455Z,29.32
2018-04-20T16:23:48.736Z,29.94
2018-04-20T16:26:17.020Z,29.69
2018-04-20T16:28:46.259Z,29.55
2018-04-20T16:31:14.534Z,29.47
2018-04-20T16:33:42.815Z,29.37
2018-04-20T16:36:11.151Z,29.20
2018-04-20T16:38:40.203Z,28.87
2018-04-20T16:41:08.498Z,28.63
2018-04-20T16:43:36.806Z,28.80
2018-04-20T16:46:05.847Z,28.38
2018-04-20T16:48:34.191Z,27.86
2018-04-20T16:51:02.495Z,27.94
2018-04-20T16:53:30.792Z,28.22
2018-04-20T16:55:59.031Z,27.65
2018-04-20T16:58:27.324Z,27.60
2018-04-20T17:00:55.611Z,27.36
2018-04-20T17:03:23.952Z,27.26
2018-04-20T17:05:52.284Z,27.39
2018-04-20T17:08:20.600Z,27.06
2018-04-20T17:10:49.643Z,26.91
2018-04-20T17:13:17.966Z,26.78
2018-04-20T17:15:47.016Z,26.71
2018-04-20T17:18:15.358Z,26.53
2018-04-20T17:20:43.660Z,26.34
2018-04-20T17:23:11.953Z,26.10
2018-04-20T17:25:40.275Z,25.98
2018-04-20T17:28:08.561Z,25.87
2018-04-20T17:30:36.988Z,25.77
2018-04-20T17:33:05.271Z,25.60
2018-04-20T17:35:33.555Z,25.67
2018-04-20T17:38:01.899Z,25.43
2018-04-20T17:40:30.211Z,25.27
2018-04-20T17:42:58.514Z,25.11
2018-04-20T17:45:27.332Z,24.99
2018-04-20T17:47:55.677Z,24.93
2018-04-20T17:50:24.723Z,24.67
2018-04-20T17:52:53.007Z,24.62
2018-04-20T17:55:21.371Z,24.55
2018-04-20T17:57:49.700Z,24.35
2018-04-20T18:00:17.995Z,24.23
2018-04-20T18:02:46.855Z,24.18
2018-04-20T18:05:15.601Z,24.08
2018-04-20T18:07:43.905Z,24.02
2018-04-20T18:10:12.259Z,23.97
2018-04-20T18:12:40.572Z,23.88
2018-04-20T18:15:08.864Z,23.71
2018-04-20T18:17:37.767Z,23.63
2018-04-20T18:20:06.053Z,23.52
2018-04-20T18:22:34.395Z,23.49
2018-04-20T18:25:02.679Z,23.37
2018-04-20T18:27:30.983Z,23.35
2018-04-20T18:29:59.310Z,23.14
2018-04-20T18:32:27.609Z,23.05
2018-04-20T18:34:55.941Z,23.12
2018-04-20T18:37:24.920Z,22.95
2018-04-20T18:39:53.203Z,22.75
2018-04-20T18:42:21.487Z,22.75
2018-04-20T18:44:49.819Z,22.79
2018-04-20T18:47:18.114Z,22.52
2018-04-20T18:49:46.892Z,22.58
2018-04-20T18:52:15.604Z,22.32
2018-04-20T18:54:44.657Z,22.14
2018-04-20T18:57:12.943Z,21.87
2018-04-20T18:59:41.274Z,21.62
2018-04-20T19:02:09.609Z,21.48
2018-04-20T19:04:38.021Z,21.28
2018-04-20T19:07:06.351Z,20.87
2018-04-20T19:09:34.653Z,20.61
2018-04-20T19:12:02.945Z,20.55
2018-04-20T19:14:31.266Z,20.48
2018-04-20T19:16:59.752Z,20.37
2018-04-20T19:19:28.541Z,20.28
2018-04-20T19:21:56.809Z,20.14
2018-04-20T19:24:25.102Z,20.14
2018-04-20T19:26:53.747Z,20.14
2018-04-20T19:29:22.546Z,20.10
2018-04-20T19:31:51.594Z,20.12
2018-04-20T19:34:20.194Z,20.24
2018-04-20T19:36:48.537Z,20.26
2018-04-20T19:39:16.844Z,20.20
2018-04-20T19:41:45.164Z,20.21
2018-04-20T19:44:13.471Z,20.20
2018-04-20T19:46:41.768Z,20.14
2018-04-20T19:49:10.847Z,19.97
2018-04-20T19:51:39.139Z,19.82
2018-04-20T19:54:07.437Z,19.60
2018-04-20T19:56:35.792Z,19.38
2018-04-20T19:59:04.084Z,19.22
2018-04-20T20:01:32.385Z,19.05
2018-04-20T20:04:00.728Z,18.89
2018-04-20T20:06:29.778Z,18.82
2018-04-20T20:08:58.063Z,19.25
2018-04-20T20:11:26.858Z,19.23
2018-04-20T20:13:55.151Z,18.89
2018-04-20T20:16:23.444Z,18.60
2018-04-20T20:18:51.795Z,18.33
2018-04-20T20:21:20.087Z,18.27
2018-04-20T20:23:48.399Z,18.28
2018-04-20T20:26:16.699Z,18.27
2018-04-20T20:28:45.306Z,18.26
2018-04-20T20:31:13.619Z,18.09
2018-04-20T20:33:42.673Z,18.09
2018-04-20T20:36:11.041Z,18.10
2018-04-20T20:38:39.343Z,17.91
2018-04-20T20:41:07.664Z,17.71
2018-04-20T20:43:36.011Z,17.71
2018-04-20T20:46:04.323Z,17.71
2018-04-20T20:48:32.616Z,17.76
2018-04-20T20:51:00.934Z,17.62
2018-04-20T20:53:29.236Z,17.62
2018-04-20T20:55:57.564Z,17.50
2018-04-20T20:58:25.892Z,17.25
2018-04-20T21:00:54.939Z,16.96
2018-04-20T21:03:23.276Z,16.85
2018-04-20T21:05:51.562Z,17.04
2018-04-20T21:08:19.851Z,16.92
2018-04-20T21:10:48.180Z,16.84
2018-04-20T21:13:16.471Z,16.87
2018-04-20T21:15:44.777Z,16.91
2018-04-20T21:18:13.118Z,16.98
2018-04-20T21:20:41.416Z,17.01
2018-04-20T21:23:09.706Z,16.97
2018-04-20T21:25:38.727Z,16.82
2018-04-20T21:28:07.015Z,16.73
2018-04-20T21:30:35.395Z,16.60
2018-04-20T21:33:03.747Z,16.49
2018-04-20T21:35:32.273Z,16.35
2018-04-20T21:38:00.567Z,16.27
2018-04-20T21:40:29.047Z,16.18
2018-04-20T21:42:58.142Z,15.94
2018-04-20T21:45:26.939Z,15.77
2018-04-20T21:47:56.107Z,15.63
2018-04-20T21:50:24.397Z,15.65
2018-04-20T21:52:52.688Z,15.84
2018-04-20T21:55:21.775Z,15.83
2018-04-20T21:57:50.095Z,15.72
2018-04-20T22:00:18.389Z,15.65
2018-04-20T22:02:46.719Z,15.69
2018-04-20T22:05:15.003Z,15.65
2018-04-20T22:07:43.460Z,15.64
2018-04-20T22:10:11.804Z,15.59
2018-04-20T22:12:40.097Z,15.34
2018-04-20T22:15:08.387Z,15.08
2018-04-20T22:17:36.710Z,14.94
2018-04-20T22:20:05.003Z,14.76
2018-04-20T22:22:33.290Z,14.75
2018-04-20T22:25:01.615Z,14.90
2018-04-20T22:27:30.138Z,14.85
2018-04-20T22:29:58.394Z,14.67
2018-04-20T22:32:26.855Z,14.68
2018-04-20T22:34:55.151Z,14.64
2018-04-20T22:37:23.443Z,14.55
2018-04-20T22:39:51.760Z,14.41
2018-04-20T22:42:20.051Z,14.36
2018-04-20T22:44:48.381Z,14.25
2018-04-20T22:47:16.671Z,14.12
2018-04-20T22:49:45.064Z,14.02
2018-04-20T22:52:13.384Z,14.06
2018-04-20T22:54:41.675Z,14.05
2018-04-20T22:57:09.976Z,13.81
2018-04-20T22:59:38.310Z,13.78
2018-04-20T23:02:06.602Z,13.80
2018-04-20T23:04:35.310Z,13.72
2018-04-20T23:07:03.657Z,13.78
2018-04-20T23:09:31.991Z,13.85
2018-04-20T23:12:00.297Z,13.77
2018-04-20T23:14:28.619Z,13.70
2018-04-20T23:16:56.912Z,13.58
2018-04-20T23:19:25.199Z,13.49
2018-04-20T23:21:53.540Z,13.43
2018-04-20T23:24:21.828Z,13.45
2018-04-20T23:26:49.911Z,13.43
2018-04-20T23:29:18.247Z,13.23
2018-04-20T23:31:46.543Z,13.08
2018-04-20T23:34:14.837Z,13.04
2018-04-20T23:36:43.179Z,12.99
2018-04-20T23:39:12.235Z,12.92
2018-04-20T23:41:40.566Z,12.99
2018-04-20T23:44:08.859Z,12.97
2018-04-20T23:46:37.204Z,12.96
2018-04-20T23:49:05.536Z,12.97
2018-04-20T23:51:33.832Z,12.87
2018-04-20T23:54:02.675Z,12.84
2018-04-20T23:56:31.003Z,12.86
2018-04-20T23:58:59.291Z,12.86
